sensor_id;sensor_type;location;lat;lon;timestamp;P1;durP1;ratioP1;P2;durP2;ratioP2
1436;SDS011;712;51.026;13.792;2024-02-16T00:01:30;16.27;;;8.73;;
1436;SDS011;712;51.026;13.792;2024-02-16T00:03:55;16.55;;;8.52;;
1436;SDS011;712;51.026;13.792;2024-02-16T00:06:20;14.45;;;7.63;;
1436;SDS011;712;51.026;13.792;2024-02-16T00:08:45;17.25;;;8.88;;
1436;SDS011;712;51.026;13.792;2024-02-16T00:11:11;17.50;;;8.20;;
1436;SDS011;712;51.026;13.792;2024-02-16T00:13:36;19.08;;;9.40;;
1436;SDS011;712;51.026;13.792;2024-02-16T00:16:02;19.20;;;9.05;;
1436;SDS011;712;51.026;13.792;2024-02-16T00:18:27;17.90;;;7.97;;
1436;SDS011;712;51.026;13.792;2024-02-16T00:20:52;19.08;;;8.82;;
1436;SDS011;712;51.026;13.792;2024-02-16T00:23:17;16.63;;;8.50;;
1436;SDS011;712;51.026;13.792;2024-02-16T00:25:47;16.40;;;8.57;;
1436;SDS011;712;51.026;13.792;2024-02-16T00:28:12;17.17;;;8.38;;
1436;SDS011;712;51.026;13.792;2024-02-16T00:30:38;17.15;;;9.18;;
1436;SDS011;712;51.026;13.792;2024-02-16T00:33:03;17.10;;;9.00;;
1436;SDS011;712;51.026;13.792;2024-02-16T00:35:28;15.97;;;8.90;;
1436;SDS011;712;51.026;13.792;2024-02-16T00:37:58;17.00;;;8.13;;
1436;SDS011;712;51.026;13.792;2024-02-16T00:40:23;16.45;;;8.80;;
1436;SDS011;712;51.026;13.792;2024-02-16T00:42:48;15.35;;;8.32;;
1436;SDS011;712;51.026;13.792;2024-02-16T00:45:13;15.55;;;8.20;;
1436;SDS011;712;51.026;13.792;2024-02-16T00:47:39;14.85;;;7.93;;
1436;SDS011;712;51.026;13.792;2024-02-16T00:50:04;17.70;;;9.25;;
1436;SDS011;712;51.026;13.792;2024-02-16T00:52:30;17.02;;;9.35;;
1436;SDS011;712;51.026;13.792;2024-02-16T00:54:55;18.35;;;8.38;;
1436;SDS011;712;51.026;13.792;2024-02-16T00:57:20;17.47;;;8.93;;
1436;SDS011;712;51.026;13.792;2024-02-16T00:59:46;18.70;;;9.33;;
1436;SDS011;712;51.026;13.792;2024-02-16T01:02:11;16.77;;;8.27;;
1436;SDS011;712;51.026;13.792;2024-02-16T01:04:36;15.68;;;8.75;;
1436;SDS011;712;51.026;13.792;2024-02-16T01:07:01;15.63;;;8.17;;
1436;SDS011;712;51.026;13.792;2024-02-16T01:09:28;17.30;;;8.82;;
1436;SDS011;712;51.026;13.792;2024-02-16T01:11:53;16.08;;;8.52;;
1436;SDS011;712;51.026;13.792;2024-02-16T01:14:18;18.33;;;9.07;;
1436;SDS011;712;51.026;13.792;2024-02-16T01:16:43;18.17;;;8.40;;
1436;SDS011;712;51.026;13.792;2024-02-16T01:19:08;16.93;;;8.17;;
1436;SDS011;712;51.026;13.792;2024-02-16T01:21:34;19.33;;;9.35;;
1436;SDS011;712;51.026;13.792;2024-02-16T01:23:59;19.83;;;9.13;;
1436;SDS011;712;51.026;13.792;2024-02-16T01:26:26;17.80;;;9.68;;
1436;SDS011;712;51.026;13.792;2024-02-16T01:28:51;20.95;;;9.52;;
1436;SDS011;712;51.026;13.792;2024-02-16T01:31:16;18.50;;;10.03;;
1436;SDS011;712;51.026;13.792;2024-02-16T01:33:41;18.73;;;9.98;;
1436;SDS011;712;51.026;13.792;2024-02-16T01:36:06;17.80;;;9.50;;
1436;SDS011;712;51.026;13.792;2024-02-16T01:38:32;18.07;;;9.50;;
1436;SDS011;712;51.026;13.792;2024-02-16T01:40:57;18.83;;;10.07;;
1436;SDS011;712;51.026;13.792;2024-02-16T01:43:22;17.20;;;9.30;;
1436;SDS011;712;51.026;13.792;2024-02-16T01:45:47;19.42;;;10.23;;
1436;SDS011;712;51.026;13.792;2024-02-16T01:48:15;17.77;;;9.85;;
1436;SDS011;712;51.026;13.792;2024-02-16T01:50:44;19.02;;;10.15;;
1436;SDS011;712;51.026;13.792;2024-02-16T01:53:09;20.17;;;9.50;;
1436;SDS011;712;51.026;13.792;2024-02-16T01:55:36;17.83;;;9.98;;
1436;SDS011;712;51.026;13.792;2024-02-16T01:58:01;18.03;;;10.10;;
1436;SDS011;712;51.026;13.792;2024-02-16T02:00:26;19.02;;;10.23;;
1436;SDS011;712;51.026;13.792;2024-02-16T02:02:52;17.70;;;9.67;;
1436;SDS011;712;51.026;13.792;2024-02-16T02:05:17;18.25;;;10.55;;
1436;SDS011;712;51.026;13.792;2024-02-16T02:07:42;20.50;;;10.95;;
1436;SDS011;712;51.026;13.792;2024-02-16T02:10:09;20.13;;;10.65;;
1436;SDS011;712;51.026;13.792;2024-02-16T02:12:37;19.30;;;10.48;;
1436;SDS011;712;51.026;13.792;2024-02-16T02:15:02;19.83;;;11.37;;
1436;SDS011;712;51.026;13.792;2024-02-16T02:17:28;19.48;;;10.93;;
1436;SDS011;712;51.026;13.792;2024-02-16T02:19:53;19.25;;;10.45;;
1436;SDS011;712;51.026;13.792;2024-02-16T02:22:19;20.73;;;11.45;;
1436;SDS011;712;51.026;13.792;2024-02-16T02:24:44;18.83;;;10.27;;
1436;SDS011;712;51.026;13.792;2024-02-16T02:27:10;19.83;;;11.07;;
1436;SDS011;712;51.026;13.792;2024-02-16T02:29:36;20.10;;;11.23;;
1436;SDS011;712;51.026;13.792;2024-02-16T02:32:01;18.48;;;10.30;;
1436;SDS011;712;51.026;13.792;2024-02-16T02:34:26;19.33;;;10.90;;
1436;SDS011;712;51.026;13.792;2024-02-16T02:36:52;19.73;;;10.90;;
1436;SDS011;712;51.026;13.792;2024-02-16T02:39:17;17.67;;;10.57;;
1436;SDS011;712;51.026;13.792;2024-02-16T02:41:42;19.45;;;11.23;;
1436;SDS011;712;51.026;13.792;2024-02-16T02:44:08;18.35;;;10.43;;
1436;SDS011;712;51.026;13.792;2024-02-16T02:46:33;18.67;;;10.70;;
1436;SDS011;712;51.026;13.792;2024-02-16T02:48:58;19.55;;;10.93;;
1436;SDS011;712;51.026;13.792;2024-02-16T02:51:23;18.73;;;10.60;;
1436;SDS011;712;51.026;13.792;2024-02-16T02:53:48;21.03;;;11.53;;
1436;SDS011;712;51.026;13.792;2024-02-16T02:56:14;21.07;;;10.97;;
1436;SDS011;712;51.026;13.792;2024-02-16T02:58:39;19.77;;;11.18;;
1436;SDS011;712;51.026;13.792;2024-02-16T03:01:04;20.50;;;11.10;;
1436;SDS011;712;51.026;13.792;2024-02-16T03:03:30;20.23;;;10.88;;
1436;SDS011;712;51.026;13.792;2024-02-16T03:05:55;20.50;;;10.90;;
1436;SDS011;712;51.026;13.792;2024-02-16T03:08:20;19.00;;;11.10;;
1436;SDS011;712;51.026;13.792;2024-02-16T03:10:45;19.08;;;10.80;;
1436;SDS011;712;51.026;13.792;2024-02-16T03:13:11;20.92;;;10.93;;
1436;SDS011;712;51.026;13.792;2024-02-16T03:15:37;20.77;;;11.82;;
1436;SDS011;712;51.026;13.792;2024-02-16T03:18:07;20.40;;;11.43;;
1436;SDS011;712;51.026;13.792;2024-02-16T03:20:33;20.92;;;12.43;;
1436;SDS011;712;51.026;13.792;2024-02-16T03:22:59;21.00;;;11.48;;
1436;SDS011;712;51.026;13.792;2024-02-16T03:25:24;18.63;;;11.17;;
1436;SDS011;712;51.026;13.792;2024-02-16T03:27:50;20.85;;;11.15;;
1436;SDS011;712;51.026;13.792;2024-02-16T03:30:16;20.48;;;11.95;;
1436;SDS011;712;51.026;13.792;2024-02-16T03:32:41;20.93;;;11.70;;
1436;SDS011;712;51.026;13.792;2024-02-16T03:35:06;21.75;;;11.93;;
1436;SDS011;712;51.026;13.792;2024-02-16T03:37:31;19.02;;;11.00;;
1436;SDS011;712;51.026;13.792;2024-02-16T03:39:56;19.75;;;11.07;;
1436;SDS011;712;51.026;13.792;2024-02-16T03:42:22;21.05;;;11.20;;
1436;SDS011;712;51.026;13.792;2024-02-16T03:44:47;20.13;;;11.33;;
1436;SDS011;712;51.026;13.792;2024-02-16T03:47:12;22.33;;;12.27;;
1436;SDS011;712;51.026;13.792;2024-02-16T03:49:38;20.88;;;11.60;;
1436;SDS011;712;51.026;13.792;2024-02-16T03:52:03;23.60;;;11.60;;
1436;SDS011;712;51.026;13.792;2024-02-16T03:54:29;19.73;;;11.10;;
1436;SDS011;712;51.026;13.792;2024-02-16T03:56:54;21.85;;;11.82;;
1436;SDS011;712;51.026;13.792;2024-02-16T03:59:20;21.17;;;11.80;;
1436;SDS011;712;51.026;13.792;2024-02-16T04:01:45;20.80;;;11.70;;
1436;SDS011;712;51.026;13.792;2024-02-16T04:04:11;21.33;;;11.45;;
1436;SDS011;712;51.026;13.792;2024-02-16T04:06:36;23.23;;;12.43;;
1436;SDS011;712;51.026;13.792;2024-02-16T04:09:01;18.48;;;10.60;;
1436;SDS011;712;51.026;13.792;2024-02-16T04:11:26;21.97;;;11.90;;
1436;SDS011;712;51.026;13.792;2024-02-16T04:13:54;21.63;;;11.70;;
1436;SDS011;712;51.026;13.792;2024-02-16T04:16:19;22.77;;;12.13;;
1436;SDS011;712;51.026;13.792;2024-02-16T04:18:47;23.38;;;12.30;;
1436;SDS011;712;51.026;13.792;2024-02-16T04:21:12;21.27;;;11.93;;
1436;SDS011;712;51.026;13.792;2024-02-16T04:23:37;20.50;;;11.93;;
1436;SDS011;712;51.026;13.792;2024-02-16T04:26:02;22.57;;;12.17;;
1436;SDS011;712;51.026;13.792;2024-02-16T04:28:27;22.30;;;12.17;;
1436;SDS011;712;51.026;13.792;2024-02-16T04:30:53;20.70;;;12.07;;
1436;SDS011;712;51.026;13.792;2024-02-16T04:33:18;20.17;;;12.17;;
1436;SDS011;712;51.026;13.792;2024-02-16T04:35:43;19.23;;;10.57;;
1436;SDS011;712;51.026;13.792;2024-02-16T04:38:11;23.80;;;12.60;;
1436;SDS011;712;51.026;13.792;2024-02-16T04:40:37;21.38;;;12.10;;
1436;SDS011;712;51.026;13.792;2024-02-16T04:43:02;21.35;;;11.95;;
1436;SDS011;712;51.026;13.792;2024-02-16T04:45:27;22.83;;;12.70;;
1436;SDS011;712;51.026;13.792;2024-02-16T04:47:55;18.88;;;11.73;;
1436;SDS011;712;51.026;13.792;2024-02-16T04:50:20;21.77;;;12.52;;
1436;SDS011;712;51.026;13.792;2024-02-16T04:52:45;21.05;;;10.98;;
1436;SDS011;712;51.026;13.792;2024-02-16T04:55:11;21.25;;;12.32;;
1436;SDS011;712;51.026;13.792;2024-02-16T04:57:36;23.40;;;12.17;;
1436;SDS011;712;51.026;13.792;2024-02-16T05:00:01;22.77;;;12.23;;
1436;SDS011;712;51.026;13.792;2024-02-16T05:02:26;19.20;;;11.50;;
1436;SDS011;712;51.026;13.792;2024-02-16T05:04:51;20.90;;;12.38;;
1436;SDS011;712;51.026;13.792;2024-02-16T05:07:16;21.03;;;12.67;;
1436;SDS011;712;51.026;13.792;2024-02-16T05:09:42;22.02;;;12.90;;
1436;SDS011;712;51.026;13.792;2024-02-16T05:12:08;21.98;;;12.05;;
1436;SDS011;712;51.026;13.792;2024-02-16T05:14:33;20.38;;;12.00;;
1436;SDS011;712;51.026;13.792;2024-02-16T05:16:59;24.05;;;13.00;;
1436;SDS011;712;51.026;13.792;2024-02-16T05:19:24;21.83;;;12.57;;
1436;SDS011;712;51.026;13.792;2024-02-16T05:21:49;23.50;;;12.15;;
1436;SDS011;712;51.026;13.792;2024-02-16T05:24:14;22.23;;;12.27;;
1436;SDS011;712;51.026;13.792;2024-02-16T05:26:39;19.98;;;11.10;;
1436;SDS011;712;51.026;13.792;2024-02-16T05:29:04;20.00;;;12.20;;
1436;SDS011;712;51.026;13.792;2024-02-16T05:31:29;20.53;;;12.80;;
1436;SDS011;712;51.026;13.792;2024-02-16T05:33:56;21.77;;;12.63;;
1436;SDS011;712;51.026;13.792;2024-02-16T05:36:21;20.77;;;12.40;;
1436;SDS011;712;51.026;13.792;2024-02-16T05:38:49;20.60;;;11.30;;
1436;SDS011;712;51.026;13.792;2024-02-16T05:41:17;21.50;;;11.97;;
1436;SDS011;712;51.026;13.792;2024-02-16T05:43:45;21.38;;;12.25;;
1436;SDS011;712;51.026;13.792;2024-02-16T05:46:14;20.57;;;11.83;;
1436;SDS011;712;51.026;13.792;2024-02-16T05:48:39;19.58;;;11.77;;
1436;SDS011;712;51.026;13.792;2024-02-16T05:51:05;19.90;;;12.00;;
1436;SDS011;712;51.026;13.792;2024-02-16T05:53:31;19.55;;;11.75;;
1436;SDS011;712;51.026;13.792;2024-02-16T05:55:56;22.55;;;13.43;;
1436;SDS011;712;51.026;13.792;2024-02-16T05:58:21;21.35;;;11.85;;
1436;SDS011;712;51.026;13.792;2024-02-16T06:00:48;20.10;;;12.13;;
1436;SDS011;712;51.026;13.792;2024-02-16T06:03:13;23.50;;;12.90;;
1436;SDS011;712;51.026;13.792;2024-02-16T06:05:38;22.27;;;12.77;;
1436;SDS011;712;51.026;13.792;2024-02-16T06:08:05;21.95;;;11.20;;
1436;SDS011;712;51.026;13.792;2024-02-16T06:10:30;23.40;;;12.10;;
1436;SDS011;712;51.026;13.792;2024-02-16T06:12:56;23.85;;;11.95;;
1436;SDS011;712;51.026;13.792;2024-02-16T06:15:21;23.63;;;13.07;;
1436;SDS011;712;51.026;13.792;2024-02-16T06:17:47;22.00;;;12.13;;
1436;SDS011;712;51.026;13.792;2024-02-16T06:20:13;23.42;;;12.27;;
1436;SDS011;712;51.026;13.792;2024-02-16T06:22:39;21.08;;;11.65;;
1436;SDS011;712;51.026;13.792;2024-02-16T06:25:04;22.60;;;12.57;;
1436;SDS011;712;51.026;13.792;2024-02-16T06:27:30;20.98;;;11.45;;
1436;SDS011;712;51.026;13.792;2024-02-16T06:29:55;22.88;;;12.00;;
1436;SDS011;712;51.026;13.792;2024-02-16T06:32:20;22.48;;;12.25;;
1436;SDS011;712;51.026;13.792;2024-02-16T06:34:45;22.38;;;11.95;;
1436;SDS011;712;51.026;13.792;2024-02-16T06:37:11;25.08;;;13.25;;
1436;SDS011;712;51.026;13.792;2024-02-16T06:39:36;22.02;;;12.55;;
1436;SDS011;712;51.026;13.792;2024-02-16T06:42:01;26.67;;;13.43;;
1436;SDS011;712;51.026;13.792;2024-02-16T06:44:26;24.60;;;12.07;;
1436;SDS011;712;51.026;13.792;2024-02-16T06:46:52;23.98;;;14.05;;
1436;SDS011;712;51.026;13.792;2024-02-16T06:49:17;23.03;;;12.30;;
1436;SDS011;712;51.026;13.792;2024-02-16T06:51:42;24.27;;;12.48;;
1436;SDS011;712;51.026;13.792;2024-02-16T06:54:09;24.77;;;14.02;;
1436;SDS011;712;51.026;13.792;2024-02-16T06:56:34;23.20;;;12.95;;
1436;SDS011;712;51.026;13.792;2024-02-16T06:59:00;23.88;;;12.80;;
1436;SDS011;712;51.026;13.792;2024-02-16T07:01:26;23.80;;;13.17;;
1436;SDS011;712;51.026;13.792;2024-02-16T07:03:52;23.88;;;13.07;;
1436;SDS011;712;51.026;13.792;2024-02-16T07:06:17;24.45;;;13.25;;
1436;SDS011;712;51.026;13.792;2024-02-16T07:08:43;23.53;;;12.87;;
1436;SDS011;712;51.026;13.792;2024-02-16T07:11:09;22.75;;;12.50;;
1436;SDS011;712;51.026;13.792;2024-02-16T07:13:36;23.85;;;14.13;;
1436;SDS011;712;51.026;13.792;2024-02-16T07:16:02;23.13;;;12.57;;
1436;SDS011;712;51.026;13.792;2024-02-16T07:18:28;25.40;;;12.68;;
1436;SDS011;712;51.026;13.792;2024-02-16T07:20:55;23.92;;;12.57;;
1436;SDS011;712;51.026;13.792;2024-02-16T07:23:20;26.10;;;13.20;;
1436;SDS011;712;51.026;13.792;2024-02-16T07:25:45;23.73;;;12.80;;
1436;SDS011;712;51.026;13.792;2024-02-16T07:28:11;23.15;;;13.32;;
1436;SDS011;712;51.026;13.792;2024-02-16T07:30:36;21.92;;;12.48;;
1436;SDS011;712;51.026;13.792;2024-02-16T07:33:07;21.73;;;12.10;;
1436;SDS011;712;51.026;13.792;2024-02-16T07:35:35;23.48;;;12.68;;
1436;SDS011;712;51.026;13.792;2024-02-16T07:38:01;25.73;;;13.27;;
1436;SDS011;712;51.026;13.792;2024-02-16T07:40:26;22.65;;;12.65;;
1436;SDS011;712;51.026;13.792;2024-02-16T07:42:52;26.80;;;14.07;;
1436;SDS011;712;51.026;13.792;2024-02-16T07:45:17;23.07;;;12.87;;
1436;SDS011;712;51.026;13.792;2024-02-16T07:47:42;23.90;;;13.20;;
1436;SDS011;712;51.026;13.792;2024-02-16T07:50:07;23.70;;;12.73;;
1436;SDS011;712;51.026;13.792;2024-02-16T07:52:33;21.35;;;11.73;;
1436;SDS011;712;51.026;13.792;2024-02-16T07:54:58;25.07;;;13.17;;
1436;SDS011;712;51.026;13.792;2024-02-16T07:57:23;21.27;;;11.95;;
1436;SDS011;712;51.026;13.792;2024-02-16T07:59:48;21.53;;;12.40;;
1436;SDS011;712;51.026;13.792;2024-02-16T08:02:14;23.83;;;12.73;;
1436;SDS011;712;51.026;13.792;2024-02-16T08:07:06;21.88;;;12.02;;
1436;SDS011;712;51.026;13.792;2024-02-16T08:09:31;20.83;;;11.27;;
1436;SDS011;712;51.026;13.792;2024-02-16T08:11:56;22.52;;;12.40;;
1436;SDS011;712;51.026;13.792;2024-02-16T08:14:21;23.57;;;12.63;;
1436;SDS011;712;51.026;13.792;2024-02-16T08:16:46;23.17;;;13.10;;
1436;SDS011;712;51.026;13.792;2024-02-16T08:19:11;20.90;;;12.70;;
1436;SDS011;712;51.026;13.792;2024-02-16T08:21:38;21.67;;;11.48;;
1436;SDS011;712;51.026;13.792;2024-02-16T08:24:04;23.90;;;12.98;;
1436;SDS011;712;51.026;13.792;2024-02-16T08:26:29;20.20;;;11.80;;
1436;SDS011;712;51.026;13.792;2024-02-16T08:28:54;19.70;;;11.30;;
1436;SDS011;712;51.026;13.792;2024-02-16T08:31:19;19.88;;;11.95;;
1436;SDS011;712;51.026;13.792;2024-02-16T08:33:45;23.15;;;12.77;;
1436;SDS011;712;51.026;13.792;2024-02-16T08:38:36;20.48;;;11.25;;
1436;SDS011;712;51.026;13.792;2024-02-16T08:41:02;23.40;;;13.27;;
1436;SDS011;712;51.026;13.792;2024-02-16T08:43:28;24.92;;;12.80;;
1436;SDS011;712;51.026;13.792;2024-02-16T08:45:53;21.33;;;12.33;;
1436;SDS011;712;51.026;13.792;2024-02-16T08:48:18;24.00;;;13.97;;
1436;SDS011;712;51.026;13.792;2024-02-16T08:50:43;24.73;;;13.57;;
1436;SDS011;712;51.026;13.792;2024-02-16T08:53:08;24.90;;;14.10;;
1436;SDS011;712;51.026;13.792;2024-02-16T08:55:35;23.15;;;13.45;;
1436;SDS011;712;51.026;13.792;2024-02-16T08:58:00;22.87;;;12.80;;
1436;SDS011;712;51.026;13.792;2024-02-16T09:00:25;24.67;;;13.80;;
1436;SDS011;712;51.026;13.792;2024-02-16T09:02:51;26.25;;;14.52;;
1436;SDS011;712;51.026;13.792;2024-02-16T09:05:17;22.37;;;13.27;;
1436;SDS011;712;51.026;13.792;2024-02-16T09:07:43;23.77;;;13.73;;
1436;SDS011;712;51.026;13.792;2024-02-16T09:10:08;21.77;;;13.03;;
1436;SDS011;712;51.026;13.792;2024-02-16T09:12:34;20.93;;;13.50;;
1436;SDS011;712;51.026;13.792;2024-02-16T09:14:59;22.48;;;13.50;;
1436;SDS011;712;51.026;13.792;2024-02-16T09:17:24;22.83;;;13.95;;
1436;SDS011;712;51.026;13.792;2024-02-16T09:19:49;23.20;;;13.60;;
1436;SDS011;712;51.026;13.792;2024-02-16T09:22:14;22.05;;;13.63;;
1436;SDS011;712;51.026;13.792;2024-02-16T09:24:40;22.40;;;14.27;;
1436;SDS011;712;51.026;13.792;2024-02-16T09:27:05;21.48;;;13.68;;
1436;SDS011;712;51.026;13.792;2024-02-16T09:29:31;22.63;;;12.80;;
1436;SDS011;712;51.026;13.792;2024-02-16T09:31:57;21.20;;;13.00;;
1436;SDS011;712;51.026;13.792;2024-02-16T09:34:23;25.00;;;14.17;;
1436;SDS011;712;51.026;13.792;2024-02-16T09:36:48;23.30;;;13.52;;
1436;SDS011;712;51.026;13.792;2024-02-16T09:39:13;21.02;;;13.52;;
1436;SDS011;712;51.026;13.792;2024-02-16T09:41:40;22.77;;;14.03;;
1436;SDS011;712;51.026;13.792;2024-02-16T09:44:06;23.85;;;12.82;;
1436;SDS011;712;51.026;13.792;2024-02-16T09:46:31;21.02;;;12.35;;
1436;SDS011;712;51.026;13.792;2024-02-16T09:48:59;20.15;;;12.77;;
1436;SDS011;712;51.026;13.792;2024-02-16T09:51:25;20.20;;;13.23;;
1436;SDS011;712;51.026;13.792;2024-02-16T09:53:50;20.83;;;12.10;;
1436;SDS011;712;51.026;13.792;2024-02-16T09:56:20;21.00;;;12.98;;
1436;SDS011;712;51.026;13.792;2024-02-16T09:58:46;22.65;;;12.95;;
1436;SDS011;712;51.026;13.792;2024-02-16T10:01:17;20.95;;;12.35;;
1436;SDS011;712;51.026;13.792;2024-02-16T10:03:43;22.10;;;12.90;;
1436;SDS011;712;51.026;13.792;2024-02-16T10:06:08;21.25;;;13.10;;
1436;SDS011;712;51.026;13.792;2024-02-16T10:08:34;22.90;;;13.85;;
1436;SDS011;712;51.026;13.792;2024-02-16T10:11:03;20.95;;;13.15;;
1436;SDS011;712;51.026;13.792;2024-02-16T10:13:28;21.73;;;12.60;;
1436;SDS011;712;51.026;13.792;2024-02-16T10:16:03;21.00;;;13.07;;
1436;SDS011;712;51.026;13.792;2024-02-16T10:18:29;21.08;;;13.45;;
1436;SDS011;712;51.026;13.792;2024-02-16T10:20:54;21.13;;;12.50;;
1436;SDS011;712;51.026;13.792;2024-02-16T10:23:19;19.05;;;12.15;;
1436;SDS011;712;51.026;13.792;2024-02-16T10:25:44;19.50;;;12.20;;
1436;SDS011;712;51.026;13.792;2024-02-16T10:28:10;19.70;;;13.43;;
1436;SDS011;712;51.026;13.792;2024-02-16T10:30:37;19.92;;;12.85;;
1436;SDS011;712;51.026;13.792;2024-02-16T10:35:28;20.67;;;12.30;;
1436;SDS011;712;51.026;13.792;2024-02-16T10:37:54;19.95;;;11.65;;
1436;SDS011;712;51.026;13.792;2024-02-16T10:40:20;21.48;;;12.05;;
1436;SDS011;712;51.026;13.792;2024-02-16T10:42:47;19.63;;;12.05;;
1436;SDS011;712;51.026;13.792;2024-02-16T10:45:14;17.85;;;11.30;;
1436;SDS011;712;51.026;13.792;2024-02-16T10:47:40;19.02;;;11.38;;
1436;SDS011;712;51.026;13.792;2024-02-16T10:50:06;18.53;;;11.57;;
1436;SDS011;712;51.026;13.792;2024-02-16T10:52:31;17.73;;;11.68;;
1436;SDS011;712;51.026;13.792;2024-02-16T10:54:57;18.85;;;11.95;;
1436;SDS011;712;51.026;13.792;2024-02-16T10:57:23;18.65;;;12.15;;
1436;SDS011;712;51.026;13.792;2024-02-16T10:59:49;20.80;;;12.65;;
1436;SDS011;712;51.026;13.792;2024-02-16T11:02:17;19.58;;;12.98;;
1436;SDS011;712;51.026;13.792;2024-02-16T11:04:45;18.33;;;11.85;;
1436;SDS011;712;51.026;13.792;2024-02-16T11:07:10;19.20;;;12.02;;
1436;SDS011;712;51.026;13.792;2024-02-16T11:09:38;20.10;;;12.40;;
1436;SDS011;712;51.026;13.792;2024-02-16T11:12:04;18.75;;;12.15;;
1436;SDS011;712;51.026;13.792;2024-02-16T11:17:01;20.00;;;11.68;;
1436;SDS011;712;51.026;13.792;2024-02-16T11:19:26;17.70;;;11.95;;
1436;SDS011;712;51.026;13.792;2024-02-16T11:21:55;18.87;;;12.63;;
1436;SDS011;712;51.026;13.792;2024-02-16T11:24:27;17.85;;;11.15;;
1436;SDS011;712;51.026;13.792;2024-02-16T11:26:54;21.20;;;13.20;;
1436;SDS011;712;51.026;13.792;2024-02-16T11:29:20;19.90;;;11.18;;
1436;SDS011;712;51.026;13.792;2024-02-16T11:31:45;20.03;;;12.83;;
1436;SDS011;712;51.026;13.792;2024-02-16T11:34:10;19.55;;;12.88;;
1436;SDS011;712;51.026;13.792;2024-02-16T11:36:45;19.05;;;12.18;;
1436;SDS011;712;51.026;13.792;2024-02-16T11:39:13;18.77;;;12.30;;
1436;SDS011;712;51.026;13.792;2024-02-16T11:41:41;19.55;;;12.82;;
1436;SDS011;712;51.026;13.792;2024-02-16T11:44:07;17.65;;;10.40;;
1436;SDS011;712;51.026;13.792;2024-02-16T11:46:32;17.55;;;11.32;;
1436;SDS011;712;51.026;13.792;2024-02-16T11:49:05;17.92;;;12.15;;
1436;SDS011;712;51.026;13.792;2024-02-16T11:51:30;17.40;;;11.30;;
1436;SDS011;712;51.026;13.792;2024-02-16T11:53:56;16.90;;;10.40;;
1436;SDS011;712;51.026;13.792;2024-02-16T11:56:23;19.88;;;11.98;;
1436;SDS011;712;51.026;13.792;2024-02-16T11:58:49;19.67;;;12.85;;
1436;SDS011;712;51.026;13.792;2024-02-16T12:01:14;19.97;;;12.70;;
1436;SDS011;712;51.026;13.792;2024-02-16T12:03:40;19.30;;;12.65;;
1436;SDS011;712;51.026;13.792;2024-02-16T12:06:05;18.90;;;11.98;;
1436;SDS011;712;51.026;13.792;2024-02-16T12:08:34;18.07;;;10.63;;
1436;SDS011;712;51.026;13.792;2024-02-16T12:10:59;17.38;;;11.60;;
1436;SDS011;712;51.026;13.792;2024-02-16T12:13:25;19.47;;;13.10;;
1436;SDS011;712;51.026;13.792;2024-02-16T12:15:51;19.05;;;12.00;;
1436;SDS011;712;51.026;13.792;2024-02-16T12:18:23;18.43;;;12.00;;
1436;SDS011;712;51.026;13.792;2024-02-16T12:23:14;17.73;;;10.77;;
1436;SDS011;712;51.026;13.792;2024-02-16T12:25:39;19.33;;;12.65;;
1436;SDS011;712;51.026;13.792;2024-02-16T12:28:05;18.88;;;12.38;;
1436;SDS011;712;51.026;13.792;2024-02-16T12:30:30;18.60;;;12.10;;
1436;SDS011;712;51.026;13.792;2024-02-16T12:32:55;17.87;;;11.87;;
1436;SDS011;712;51.026;13.792;2024-02-16T12:35:21;19.90;;;11.98;;
1436;SDS011;712;51.026;13.792;2024-02-16T12:37:46;19.50;;;11.38;;
1436;SDS011;712;51.026;13.792;2024-02-16T12:40:12;18.15;;;11.27;;
1436;SDS011;712;51.026;13.792;2024-02-16T12:42:38;18.90;;;12.50;;
1436;SDS011;712;51.026;13.792;2024-02-16T12:45:03;17.98;;;11.07;;
1436;SDS011;712;51.026;13.792;2024-02-16T12:47:29;17.60;;;11.32;;
1436;SDS011;712;51.026;13.792;2024-02-16T12:49:55;18.33;;;11.70;;
1436;SDS011;712;51.026;13.792;2024-02-16T12:52:21;16.25;;;10.57;;
1436;SDS011;712;51.026;13.792;2024-02-16T12:54:49;15.80;;;10.00;;
1436;SDS011;712;51.026;13.792;2024-02-16T12:57:14;16.23;;;9.73;;
1436;SDS011;712;51.026;13.792;2024-02-16T12:59:40;16.55;;;9.65;;
1436;SDS011;712;51.026;13.792;2024-02-16T13:02:05;16.75;;;9.07;;
1436;SDS011;712;51.026;13.792;2024-02-16T13:04:30;15.73;;;9.13;;
1436;SDS011;712;51.026;13.792;2024-02-16T13:06:57;15.18;;;8.85;;
1436;SDS011;712;51.026;13.792;2024-02-16T13:09:22;14.50;;;8.68;;
1436;SDS011;712;51.026;13.792;2024-02-16T13:11:48;14.77;;;8.03;;
1436;SDS011;712;51.026;13.792;2024-02-16T13:14:19;16.83;;;8.60;;
1436;SDS011;712;51.026;13.792;2024-02-16T13:16:44;13.80;;;8.23;;
1436;SDS011;712;51.026;13.792;2024-02-16T13:19:09;14.40;;;8.65;;
1436;SDS011;712;51.026;13.792;2024-02-16T13:21:34;14.63;;;8.98;;
1436;SDS011;712;51.026;13.792;2024-02-16T13:23:59;13.13;;;7.90;;
1436;SDS011;712;51.026;13.792;2024-02-16T13:26:24;14.00;;;8.97;;
1436;SDS011;712;51.026;13.792;2024-02-16T13:28:49;12.27;;;8.05;;
1436;SDS011;712;51.026;13.792;2024-02-16T13:31:15;13.10;;;8.43;;
1436;SDS011;712;51.026;13.792;2024-02-16T13:33:40;16.48;;;9.25;;
1436;SDS011;712;51.026;13.792;2024-02-16T13:36:06;14.80;;;8.70;;
1436;SDS011;712;51.026;13.792;2024-02-16T13:38:31;14.27;;;8.60;;
1436;SDS011;712;51.026;13.792;2024-02-16T13:40:56;17.60;;;8.68;;
1436;SDS011;712;51.026;13.792;2024-02-16T13:43:21;14.63;;;8.63;;
1436;SDS011;712;51.026;13.792;2024-02-16T13:45:50;14.97;;;9.57;;
1436;SDS011;712;51.026;13.792;2024-02-16T13:48:15;14.60;;;8.88;;
1436;SDS011;712;51.026;13.792;2024-02-16T13:50:43;16.47;;;9.70;;
1436;SDS011;712;51.026;13.792;2024-02-16T13:53:08;17.63;;;9.93;;
1436;SDS011;712;51.026;13.792;2024-02-16T13:55:33;15.50;;;9.67;;
1436;SDS011;712;51.026;13.792;2024-02-16T13:57:58;17.50;;;10.02;;
1436;SDS011;712;51.026;13.792;2024-02-16T14:00:23;17.02;;;10.75;;
1436;SDS011;712;51.026;13.792;2024-02-16T14:02:48;17.17;;;11.40;;
1436;SDS011;712;51.026;13.792;2024-02-16T14:05:14;18.35;;;11.75;;
1436;SDS011;712;51.026;13.792;2024-02-16T14:07:39;18.30;;;11.70;;
1436;SDS011;712;51.026;13.792;2024-02-16T14:10:05;19.42;;;12.57;;
1436;SDS011;712;51.026;13.792;2024-02-16T14:12:30;21.20;;;13.07;;
1436;SDS011;712;51.026;13.792;2024-02-16T14:14:55;21.27;;;14.07;;
1436;SDS011;712;51.026;13.792;2024-02-16T14:17:20;22.83;;;14.37;;
1436;SDS011;712;51.026;13.792;2024-02-16T14:19:45;26.37;;;14.80;;
1436;SDS011;712;51.026;13.792;2024-02-16T14:22:10;20.40;;;13.70;;
1436;SDS011;712;51.026;13.792;2024-02-16T14:24:37;21.80;;;14.18;;
1436;SDS011;712;51.026;13.792;2024-02-16T14:27:02;23.90;;;14.60;;
1436;SDS011;712;51.026;13.792;2024-02-16T14:29:28;26.27;;;15.63;;
1436;SDS011;712;51.026;13.792;2024-02-16T14:31:54;24.00;;;14.30;;
1436;SDS011;712;51.026;13.792;2024-02-16T14:34:19;23.80;;;14.37;;
1436;SDS011;712;51.026;13.792;2024-02-16T14:36:44;23.48;;;14.50;;
1436;SDS011;712;51.026;13.792;2024-02-16T14:39:09;24.45;;;15.20;;
1436;SDS011;712;51.026;13.792;2024-02-16T14:41:36;25.35;;;15.70;;
1436;SDS011;712;51.026;13.792;2024-02-16T14:44:01;23.13;;;14.47;;
1436;SDS011;712;51.026;13.792;2024-02-16T14:46:28;24.20;;;15.55;;
1436;SDS011;712;51.026;13.792;2024-02-16T14:48:53;25.02;;;15.05;;
1436;SDS011;712;51.026;13.792;2024-02-16T14:51:18;27.33;;;15.33;;
1436;SDS011;712;51.026;13.792;2024-02-16T14:53:43;26.65;;;16.55;;